Test XHTML 1.0 Strict Page for WU-History Testing
Station Historical Data
 
Daily Summary for April 25, 2017 Units:  Both    English   Metric
« Previous Day
Next Day »
Daily Weekly Monthly Yearly Custom
  Current: High: Low: Average:
Temperature: 36.0 °F /  2.2 °C 49.5 °F /  9.7 °C 31.5 °F /  -0.3 °C 38.8 °F /  3.8 °C
Dew Point: 36.0 °F /  2.2 °C 41.8 °F /  5.4 °C 30.6 °F /  -0.8 °C 35.7 °F /  2.1 °C
Humidity: 100 % 100 % 56 % 90 %
Wind Speed: 0.0 mph /  0 km/h 13.5 mph /  21.7 km/h - 1.2 mph /  1.9 km/h
Wind Gust: 0.0 mph /  0 km/h 13.5 mph /  21.7 km/h - -
Wind:Calm - - WNW
Pressure: 30.06 in /  1017.8 hPa 30.06 in /  1017.8 hPa 29.91 in /  1012.8 hPa -
Precipitation: 0.07 in /  1.78 mm      
Historical Graphs
 
 
Weather-Above Climate History
Untitled
Tabular Data for April 25, 2017
Time Temperature Dew Point Pressure Wind Wind Speed Wind Gust Humidity Rainfall Rate (Hourly) solar Conditions
00:03 33.3 °F /  0.7 °C 31.7 °F /  -0.2 °C 29.93 in /  1013.4 hPa Calm     94 % 0.00 in /  0 mm 0.0 W/m2 CLR
00:08 33.1 °F /  0.6 °C 31.5 °F /  -0.3 °C 29.93 in /  1013.4 hPa Calm     94 % 0.00 in /  0 mm 0.0 W/m2
00:13 32.9 °F /  0.5 °C 31.9 °F /  -0.1 °C 29.93 in /  1013.4 hPa Calm     96 % 0.00 in /  0 mm 13.5 W/m2
00:18 32.7 °F /  0.4 °C 31.7 °F /  -0.2 °C 29.93 in /  1013.4 hPa Calm     96 % 0.00 in /  0 mm 0.0 W/m2 CLR
00:24 31.6 °F /  -0.2 °C 30.6 °F /  -0.8 °C 29.93 in /  1013.4 hPa Calm     96 % 0.00 in /  0 mm 0.0 W/m2 CLR
00:29 32.5 °F /  0.3 °C 31.5 °F /  -0.3 °C 29.93 in /  1013.4 hPa Calm     96 % 0.00 in /  0 mm 0.0 W/m2 CLR
00:34 32.7 °F /  0.4 °C 32.0 °F /  0 °C 29.92 in /  1013.1 hPa Calm     97 % 0.00 in /  0 mm 10.5 W/m2
00:39 32.9 °F /  0.5 °C 32.1 °F /  0.1 °C 29.93 in /  1013.4 hPa Calm     97 % 0.00 in /  0 mm 0.0 W/m2 CLR
00:44 32.7 °F /  0.4 °C 32.0 °F /  0 °C 29.91 in /  1012.8 hPa Calm     97 % 0.00 in /  0 mm 0.0 W/m2
00:49 31.6 °F /  -0.2 °C 30.6 °F /  -0.8 °C 29.92 in /  1013.1 hPa Calm     96 % 0.00 in /  0 mm 36.0 W/m2
00:54 31.5 °F /  -0.3 °C 30.7 °F /  -0.7 °C 29.92 in /  1013.1 hPa Calm     97 % 0.00 in /  0 mm 0.0 W/m2
00:59 31.5 °F /  -0.3 °C 30.7 °F /  -0.7 °C 29.92 in /  1013.1 hPa Calm     97 % 0.00 in /  0 mm 0.0 W/m2
01:04 32.5 °F /  0.3 °C 31.8 °F /  -0.1 °C 29.91 in /  1012.8 hPa Calm     97 % 0.00 in /  0 mm 9.0 W/m2 RA
01:09 32.9 °F /  0.5 °C 32.1 °F /  0.1 °C 29.91 in /  1012.8 hPa Calm     97 % 0.00 in /  0 mm 0.0 W/m2 RA
01:14 33.4 °F /  0.8 °C 32.7 °F /  0.4 °C 29.92 in /  1013.1 hPa Calm     97 % 0.00 in /  0 mm 12.0 W/m2 OVC
01:19 34.2 °F /  1.2 °C 32.9 °F /  0.5 °C 29.93 in /  1013.4 hPa WNW 8.3 mph /  13.4 km/h 8.3 mph /  13.4 km/h 95 % 0.00 in /  0 mm 0.0 W/m2
01:24 34.2 °F /  1.2 °C 34.2 °F /  1.2 °C 29.93 in /  1013.4 hPa WNW 1.2 mph /  1.9 km/h   100 % 0.00 in /  0 mm 0.0 W/m2
01:29 34.2 °F /  1.2 °C 34.2 °F /  1.2 °C 29.93 in /  1013.4 hPa WNW 1.2 mph /  1.9 km/h 1.2 mph /  1.9 km/h 100 % 0.00 in /  0 mm 10.5 W/m2
01:34 34.2 °F /  1.2 °C 34.2 °F /  1.2 °C 29.93 in /  1013.4 hPa Calm     100 % 0.00 in /  0 mm 0.0 W/m2 OVC
01:39 34.2 °F /  1.2 °C 34.2 °F /  1.2 °C 29.93 in /  1013.4 hPa Calm     100 % 0.00 in /  0 mm 0.0 W/m2 OVC
01:44 34.0 °F /  1.1 °C 34.0 °F /  1.1 °C 29.92 in /  1013.1 hPa WNW 2.3 mph /  3.7 km/h 2.3 mph /  3.7 km/h 100 % 0.00 in /  0 mm 0.0 W/m2
01:49 34.2 °F /  1.2 °C 34.2 °F /  1.2 °C 29.91 in /  1012.8 hPa WNW 2.3 mph /  3.7 km/h 2.3 mph /  3.7 km/h 100 % 0.00 in /  0 mm 10.5 W/m2
01:54 34.2 °F /  1.2 °C 34.2 °F /  1.2 °C 29.91 in /  1012.8 hPa WNW 1.9 mph /  3.1 km/h 1.9 mph /  3.1 km/h 100 % 0.00 in /  0 mm 0.0 W/m2
01:59 34.2 °F /  1.2 °C 34.2 °F /  1.2 °C 29.91 in /  1012.8 hPa Calm     100 % 0.00 in /  0 mm 0.0 W/m2
02:05 34.2 °F /  1.2 °C 34.2 °F /  1.2 °C 29.91 in /  1012.8 hPa Calm     100 % 0.00 in /  0 mm 12.0 W/m2
02:10 34.2 °F /  1.2 °C 34.2 °F /  1.2 °C 29.91 in /  1012.8 hPa Calm     100 % 0.00 in /  0 mm 0.0 W/m2
02:15 34.3 °F /  1.3 °C 34.3 °F /  1.3 °C 29.91 in /  1012.8 hPa Calm     100 % 0.00 in /  0 mm 0.0 W/m2
02:20 34.5 °F /  1.4 °C 34.5 °F /  1.4 °C 29.91 in /  1012.8 hPa Calm     100 % 0.00 in /  0 mm 9.0 W/m2 OVC
02:25 34.5 °F /  1.4 °C 34.5 °F /  1.4 °C 29.91 in /  1012.8 hPa Calm     100 % 0.00 in /  0 mm 0.0 W/m2 OVC
02:30 34.5 °F /  1.4 °C 34.5 °F /  1.4 °C 29.91 in /  1012.8 hPa Calm     100 % 0.00 in /  0 mm 0.0 W/m2
02:35 34.5 °F /  1.4 °C 34.5 °F /  1.4 °C 29.91 in /  1012.8 hPa Calm     100 % 0.00 in /  0 mm 25.5 W/m2
02:40 34.5 °F /  1.4 °C 34.5 °F /  1.4 °C 29.91 in /  1012.8 hPa WNW 1.2 mph /  1.9 km/h 1.2 mph /  1.9 km/h 100 % 0.00 in /  0 mm 12.0 W/m2
02:45 34.5 °F /  1.4 °C 34.5 °F /  1.4 °C 29.91 in /  1012.8 hPa Calm     100 % 0.00 in /  0 mm 0.0 W/m2
02:50 34.5 °F /  1.4 °C 34.5 °F /  1.4 °C 29.91 in /  1012.8 hPa WNW 2.1 mph /  3.4 km/h 2.1 mph /  3.4 km/h 100 % 0.00 in /  0 mm 9.0 W/m2
02:55 34.5 °F /  1.4 °C 34.5 °F /  1.4 °C 29.91 in /  1012.8 hPa WNW 1.7 mph /  2.7 km/h 1.7 mph /  2.7 km/h 100 % 0.00 in /  0 mm 10.5 W/m2
03:00 34.7 °F /  1.5 °C 34.7 °F /  1.5 °C 29.91 in /  1012.8 hPa WNW 1.2 mph /  1.9 km/h 1.2 mph /  1.9 km/h 100 % 0.00 in /  0 mm 12.0 W/m2
03:05 34.7 °F /  1.5 °C 34.7 °F /  1.5 °C 29.91 in /  1012.8 hPa Calm     100 % 0.00 in /  0 mm 13.5 W/m2
03:10 34.7 °F /  1.5 °C 34.7 °F /  1.5 °C 29.91 in /  1012.8 hPa WNW 1.2 mph /  1.9 km/h   100 % 0.00 in /  0 mm 13.5 W/m2
03:15 34.9 °F /  1.6 °C 34.9 °F /  1.6 °C 29.91 in /  1012.8 hPa Calm     100 % 0.00 in /  0 mm 0.0 W/m2
03:20 34.9 °F /  1.6 °C 34.9 °F /  1.6 °C 29.91 in /  1012.8 hPa Calm     100 % 0.00 in /  0 mm 9.0 W/m2
03:25 34.9 °F /  1.6 °C 34.9 °F /  1.6 °C 29.91 in /  1012.8 hPa Calm     100 % 0.00 in /  0 mm 19.5 W/m2 OVC
03:30 35.1 °F /  1.7 °C 35.1 °F /  1.7 °C 29.91 in /  1012.8 hPa Calm     100 % 0.00 in /  0 mm 0.0 W/m2 OVC
03:35 35.1 °F /  1.7 °C 35.1 °F /  1.7 °C 29.91 in /  1012.8 hPa Calm     100 % 0.00 in /  0 mm 9.0 W/m2 OVC
03:40 35.1 °F /  1.7 °C 35.1 °F /  1.7 °C 29.91 in /  1012.8 hPa Calm     100 % 0.00 in /  0 mm 13.5 W/m2
03:45 35.1 °F /  1.7 °C 35.1 °F /  1.7 °C 29.91 in /  1012.8 hPa Calm     100 % 0.00 in /  0 mm 10.5 W/m2
03:51 35.1 °F /  1.7 °C 35.1 °F /  1.7 °C 29.91 in /  1012.8 hPa Calm     100 % 0.00 in /  0 mm 0.0 W/m2
03:56 35.4 °F /  1.9 °C 35.4 °F /  1.9 °C 29.91 in /  1012.8 hPa Calm     100 % 0.00 in /  0 mm 18.0 W/m2
04:01 35.2 °F /  1.8 °C 35.2 °F /  1.8 °C 29.91 in /  1012.8 hPa Calm     100 % 0.00 in /  0 mm 12.0 W/m2
04:06 35.2 °F /  1.8 °C 35.2 °F /  1.8 °C 29.92 in /  1013.1 hPa Calm     100 % 0.00 in /  0 mm 0.0 W/m2
04:11 35.4 °F /  1.9 °C 35.4 °F /  1.9 °C 29.92 in /  1013.1 hPa WNW 1.7 mph /  2.7 km/h 1.7 mph /  2.7 km/h 100 % 0.00 in /  0 mm 15.0 W/m2
04:16 35.4 °F /  1.9 °C 35.4 °F /  1.9 °C 29.92 in /  1013.1 hPa Calm     100 % 0.00 in /  0 mm 0.0 W/m2
04:21 35.4 °F /  1.9 °C 35.4 °F /  1.9 °C 29.92 in /  1013.1 hPa Calm     100 % 0.00 in /  0 mm 0.0 W/m2
04:26 35.4 °F /  1.9 °C 35.4 °F /  1.9 °C 29.93 in /  1013.4 hPa Calm     100 % 0.00 in /  0 mm 13.5 W/m2
04:31 35.4 °F /  1.9 °C 35.4 °F /  1.9 °C 29.92 in /  1013.1 hPa Calm     100 % 0.00 in /  0 mm 0.0 W/m2
04:36 35.4 °F /  1.9 °C 35.4 °F /  1.9 °C 29.92 in /  1013.1 hPa Calm     100 % 0.00 in /  0 mm 0.0 W/m2
04:41 35.4 °F /  1.9 °C 35.4 °F /  1.9 °C 29.92 in /  1013.1 hPa Calm     100 % 0.00 in /  0 mm 0.0 W/m2 OVC
04:46 35.4 °F /  1.9 °C 35.4 °F /  1.9 °C 29.93 in /  1013.4 hPa Calm     100 % 0.00 in /  0 mm 10.5 W/m2
04:51 35.2 °F /  1.8 °C 35.2 °F /  1.8 °C 29.93 in /  1013.4 hPa Calm     100 % 0.00 in /  0 mm 0.0 W/m2
04:56 35.1 °F /  1.7 °C 35.1 °F /  1.7 °C 29.93 in /  1013.4 hPa Calm     100 % 0.00 in /  0 mm 0.0 W/m2
05:01 34.9 °F /  1.6 °C 34.9 °F /  1.6 °C 29.93 in /  1013.4 hPa Calm     100 % 0.00 in /  0 mm 10.5 W/m2 CLR
05:06 34.7 °F /  1.5 °C 34.7 °F /  1.5 °C 29.93 in /  1013.4 hPa Calm     100 % 0.00 in /  0 mm 0.0 W/m2
05:11 34.7 °F /  1.5 °C 34.7 °F /  1.5 °C 29.93 in /  1013.4 hPa Calm     100 % 0.00 in /  0 mm 0.0 W/m2
05:16 34.7 °F /  1.5 °C 34.7 °F /  1.5 °C 29.93 in /  1013.4 hPa Calm     100 % 0.00 in /  0 mm 9.0 W/m2
05:21 34.5 °F /  1.4 °C 34.5 °F /  1.4 °C 29.93 in /  1013.4 hPa Calm     100 % 0.00 in /  0 mm 0.0 W/m2
05:26 34.0 °F /  1.1 °C 34.0 °F /  1.1 °C 29.93 in /  1013.4 hPa Calm     100 % 0.00 in /  0 mm 0.0 W/m2
05:31 33.8 °F /  1 °C 33.8 °F /  1 °C 29.93 in /  1013.4 hPa Calm     100 % 0.00 in /  0 mm 9.0 W/m2
05:36 33.8 °F /  1 °C 33.8 °F /  1 °C 29.93 in /  1013.4 hPa Calm     100 % 0.00 in /  0 mm 10.5 W/m2
05:42 33.3 °F /  0.7 °C 33.3 °F /  0.7 °C 29.93 in /  1013.4 hPa Calm     100 % 0.00 in /  0 mm 0.0 W/m2
05:47 33.1 °F /  0.6 °C 33.1 °F /  0.6 °C 29.93 in /  1013.4 hPa Calm     100 % 0.00 in /  0 mm 19.5 W/m2
05:52 32.7 °F /  0.4 °C 32.7 °F /  0.4 °C 29.93 in /  1013.4 hPa Calm     100 % 0.00 in /  0 mm 12.0 W/m2
05:57 32.5 °F /  0.3 °C 32.5 °F /  0.3 °C 29.94 in /  1013.8 hPa Calm     100 % 0.00 in /  0 mm 12.0 W/m2
05:59 32.5 °F /  0.3 °C 32.5 °F /  0.3 °C 29.94 in /  1013.8 hPa Calm     100 % 0.00 in /  0 mm 0.0 W/m2
06:04 31.5 °F /  -0.3 °C 31.5 °F /  -0.3 °C 29.94 in /  1013.8 hPa Calm     100 % 0.00 in /  0 mm 12.0 W/m2
06:09 32.5 °F /  0.3 °C 32.5 °F /  0.3 °C 29.94 in /  1013.8 hPa Calm     100 % 0.00 in /  0 mm 0.0 W/m2
06:14 32.7 °F /  0.4 °C 32.7 °F /  0.4 °C 29.95 in /  1014.1 hPa Calm     100 % 0.00 in /  0 mm 0.0 W/m2
06:19 32.9 °F /  0.5 °C 32.9 °F /  0.5 °C 29.95 in /  1014.1 hPa Calm     100 % 0.00 in /  0 mm 12.0 W/m2
06:24 33.3 °F /  0.7 °C 33.3 °F /  0.7 °C 29.95 in /  1014.1 hPa Calm     100 % 0.00 in /  0 mm 28.5 W/m2
06:29 32.9 °F /  0.5 °C 32.9 °F /  0.5 °C 29.95 in /  1014.1 hPa Calm     100 % 0.00 in /  0 mm 0.0 W/m2
06:34 32.9 °F /  0.5 °C 32.9 °F /  0.5 °C 29.95 in /  1014.1 hPa Calm     100 % 0.00 in /  0 mm 19.5 W/m2
06:39 32.5 °F /  0.3 °C 32.5 °F /  0.3 °C 29.95 in /  1014.1 hPa Calm     100 % 0.00 in /  0 mm 21.0 W/m2
06:44 32.7 °F /  0.4 °C 32.7 °F /  0.4 °C 29.95 in /  1014.1 hPa Calm     100 % 0.00 in /  0 mm 0.0 W/m2
06:49 33.1 °F /  0.6 °C 33.1 °F /  0.6 °C 29.95 in /  1014.1 hPa Calm     100 % 0.00 in /  0 mm 12.0 W/m2
06:54 33.3 °F /  0.7 °C 33.3 °F /  0.7 °C 29.95 in /  1014.1 hPa Calm     100 % 0.00 in /  0 mm 37.5 W/m2
06:59 33.4 °F /  0.8 °C 33.4 °F /  0.8 °C 29.95 in /  1014.1 hPa Calm     100 % 0.00 in /  0 mm 0.0 W/m2
07:04 33.6 °F /  0.9 °C 33.6 °F /  0.9 °C 29.95 in /  1014.1 hPa Calm     100 % 0.00 in /  0 mm 67.5 W/m2 OVC
07:09 33.6 °F /  0.9 °C 33.6 °F /  0.9 °C 29.95 in /  1014.1 hPa Calm     100 % 0.00 in /  0 mm 117.0 W/m2 OVC
07:15 33.6 °F /  0.9 °C 33.6 °F /  0.9 °C 29.96 in /  1014.4 hPa Calm     100 % 0.00 in /  0 mm 0.0 W/m2 OVC
07:20 33.8 °F /  1 °C 33.8 °F /  1 °C 29.96 in /  1014.4 hPa Calm     100 % 0.00 in /  0 mm 97.5 W/m2 OVC
07:25 33.8 °F /  1 °C 33.8 °F /  1 °C 29.96 in /  1014.4 hPa Calm     100 % 0.00 in /  0 mm 88.5 W/m2 OVC
07:30 34.0 °F /  1.1 °C 34.0 °F /  1.1 °C 29.97 in /  1014.8 hPa Calm     100 % 0.00 in /  0 mm 0.0 W/m2 OVC
07:35 34.2 °F /  1.2 °C 34.2 °F /  1.2 °C 29.97 in /  1014.8 hPa Calm     100 % 0.00 in /  0 mm 106.5 W/m2 OVC
07:40 34.5 °F /  1.4 °C 34.5 °F /  1.4 °C 29.97 in /  1014.8 hPa WNW 1.2 mph /  1.9 km/h   100 % 0.00 in /  0 mm 93.0 W/m2 OVC
07:45 34.7 °F /  1.5 °C 34.7 °F /  1.5 °C 29.97 in /  1014.8 hPa WNW 1.2 mph /  1.9 km/h 1.2 mph /  1.9 km/h 100 % 0.00 in /  0 mm 0.0 W/m2 OVC
07:50 34.7 °F /  1.5 °C 34.7 °F /  1.5 °C 29.97 in /  1014.8 hPa Calm     100 % 0.00 in /  0 mm 97.5 W/m2 OVC
07:55 34.9 °F /  1.6 °C 34.9 °F /  1.6 °C 29.97 in /  1014.8 hPa Calm     100 % 0.00 in /  0 mm 67.5 W/m2 OVC
08:00 34.9 °F /  1.6 °C 34.9 °F /  1.6 °C 29.97 in /  1014.8 hPa Calm     100 % 0.00 in /  0 mm 0.0 W/m2 OVC
08:05 35.1 °F /  1.7 °C 35.1 °F /  1.7 °C 29.97 in /  1014.8 hPa Calm     100 % 0.00 in /  0 mm 120.0 W/m2 OVC
08:10 35.2 °F /  1.8 °C 35.2 °F /  1.8 °C 29.97 in /  1014.8 hPa Calm     100 % 0.00 in /  0 mm 126.0 W/m2 OVC
08:15 35.4 °F /  1.9 °C 35.2 °F /  1.8 °C 29.97 in /  1014.8 hPa Calm     99 % 0.00 in /  0 mm 0.0 W/m2 OVC
08:20 35.4 °F /  1.9 °C 34.4 °F /  1.3 °C 29.97 in /  1014.8 hPa WNW 1.2 mph /  1.9 km/h 1.2 mph /  1.9 km/h 96 % 0.00 in /  0 mm 114.0 W/m2 OVC
08:25 35.6 °F /  2 °C 35.1 °F /  1.7 °C 29.97 in /  1014.8 hPa WNW 3.5 mph /  5.6 km/h   98 % 0.00 in /  0 mm 132.0 W/m2 OVC
08:30 35.6 °F /  2 °C 35.1 °F /  1.7 °C 29.97 in /  1014.8 hPa WNW 1.4 mph /  2.3 km/h 1.4 mph /  2.3 km/h 98 % 0.00 in /  0 mm 0.0 W/m2 OVC
08:35 36.0 °F /  2.2 °C 34.4 °F /  1.3 °C 29.98 in /  1015.1 hPa WNW 1.5 mph /  2.4 km/h 1.5 mph /  2.4 km/h 94 % 0.00 in /  0 mm 145.5 W/m2 OVC
08:40 36.0 °F /  2.2 °C 34.7 °F /  1.5 °C 29.97 in /  1014.8 hPa WNW 1.4 mph /  2.3 km/h 1.4 mph /  2.3 km/h 95 % 0.00 in /  0 mm 129.0 W/m2 OVC
08:45 36.1 °F /  2.3 °C 35.1 °F /  1.7 °C 29.98 in /  1015.1 hPa Calm     96 % 0.00 in /  0 mm 145.5 W/m2 OVC
08:51 36.5 °F /  2.5 °C 35.2 °F /  1.8 °C 29.98 in /  1015.1 hPa Calm     95 % 0.00 in /  0 mm 198.0 W/m2 OVC
08:56 36.9 °F /  2.7 °C 35.3 °F /  1.8 °C 29.98 in /  1015.1 hPa WNW 1.2 mph /  1.9 km/h   94 % 0.00 in /  0 mm 280.5 W/m2 OVC
09:01 36.9 °F /  2.7 °C 35.3 °F /  1.8 °C 29.98 in /  1015.1 hPa Calm     94 % 0.00 in /  0 mm 280.5 W/m2 OVC
09:06 37.0 °F /  2.8 °C 35.2 °F /  1.8 °C 29.98 in /  1015.1 hPa WNW 5.8 mph /  9.3 km/h 5.8 mph /  9.3 km/h 93 % 0.00 in /  0 mm 300.0 W/m2 OVC
09:11 37.2 °F /  2.9 °C 35.1 °F /  1.7 °C 29.98 in /  1015.1 hPa WNW 1.2 mph /  1.9 km/h   92 % 0.00 in /  0 mm 304.5 W/m2 OVC
09:16 37.4 °F /  3 °C 35.0 °F /  1.7 °C 29.98 in /  1015.1 hPa Calm     91 % 0.01 in /  0.25 mm 0.0 W/m2 RA
09:21 37.6 °F /  3.1 °C 34.6 °F /  1.4 °C 29.98 in /  1015.1 hPa Calm     89 % 0.01 in /  0.25 mm 307.5 W/m2 RA
09:26 37.8 °F /  3.2 °C 34.5 °F /  1.4 °C 29.98 in /  1015.1 hPa WNW 3.5 mph /  5.6 km/h   88 % 0.02 in /  0.51 mm 312.0 W/m2 RA
09:31 38.3 °F /  3.5 °C 35.3 °F /  1.8 °C 29.99 in /  1015.5 hPa WNW 2.3 mph /  3.7 km/h   89 % 0.02 in /  0.51 mm 0.0 W/m2 RA
09:36 38.5 °F /  3.6 °C 35.2 °F /  1.8 °C 29.99 in /  1015.5 hPa WNW 2.3 mph /  3.7 km/h 2.3 mph /  3.7 km/h 88 % 0.02 in /  0.51 mm 321.0 W/m2 RA
09:41 38.7 °F /  3.7 °C 35.1 °F /  1.7 °C 29.98 in /  1015.1 hPa WNW 2.3 mph /  3.7 km/h 2.3 mph /  3.7 km/h 87 % 0.02 in /  0.51 mm 321.0 W/m2 RA
09:46 39.0 °F /  3.9 °C 34.9 °F /  1.6 °C 29.98 in /  1015.1 hPa Calm     85 % 0.02 in /  0.51 mm 0.0 W/m2 OVC
09:51 39.4 °F /  4.1 °C 35.5 °F /  1.9 °C 29.98 in /  1015.1 hPa WNW 1.5 mph /  2.4 km/h 1.5 mph /  2.4 km/h 86 % 0.02 in /  0.51 mm 0.0 W/m2 OVC
09:56 39.7 °F /  4.3 °C 35.6 °F /  2 °C 29.98 in /  1015.1 hPa WNW 1.2 mph /  1.9 km/h   85 % 0.02 in /  0.51 mm 345.0 W/m2 OVC
10:01 41.0 °F /  5 °C 35.9 °F /  2.2 °C 29.98 in /  1015.1 hPa WNW 3.0 mph /  4.8 km/h 3.0 mph /  4.8 km/h 82 % 0.02 in /  0.51 mm 0.0 W/m2 OVC
10:06 41.5 °F /  5.3 °C 35.8 °F /  2.1 °C 29.98 in /  1015.1 hPa WNW 1.5 mph /  2.4 km/h 1.5 mph /  2.4 km/h 80 % 0.02 in /  0.51 mm 178.5 W/m2 OVC
10:12 41.5 °F /  5.3 °C 36.1 °F /  2.3 °C 29.97 in /  1014.8 hPa Calm     81 % 0.02 in /  0.51 mm 361.5 W/m2 OVC
10:17 42.1 °F /  5.6 °C 37.9 °F /  3.3 °C 29.97 in /  1014.8 hPa WNW 3.5 mph /  5.6 km/h 3.5 mph /  5.6 km/h 85 % 0.02 in /  0.51 mm 0.0 W/m2 OVC
10:22 42.3 °F /  5.7 °C 36.8 °F /  2.7 °C 29.98 in /  1015.1 hPa WNW 3.5 mph /  5.6 km/h 3.5 mph /  5.6 km/h 81 % 0.02 in /  0.51 mm 0.0 W/m2 OVC
10:27 42.8 °F /  6 °C 36.4 °F /  2.4 °C 29.97 in /  1014.8 hPa WNW 2.6 mph /  4.2 km/h 2.6 mph /  4.2 km/h 78 % 0.01 in /  0.25 mm 355.5 W/m2 OVC
10:32 42.6 °F /  5.9 °C 35.2 °F /  1.8 °C 29.98 in /  1015.1 hPa WNW 2.5 mph /  4 km/h 2.5 mph /  4 km/h 75 % 0.01 in /  0.25 mm 0.0 W/m2 OVC
10:37 43.7 °F /  6.5 °C 36.6 °F /  2.6 °C 29.98 in /  1015.1 hPa WNW 5.0 mph /  8 km/h 5.0 mph /  8 km/h 76 % 0.00 in /  0 mm 0.0 W/m2 OVC
10:42 44.1 °F /  6.7 °C 36.6 °F /  2.6 °C 29.98 in /  1015.1 hPa WNW 2.3 mph /  3.7 km/h 2.3 mph /  3.7 km/h 75 % 0.00 in /  0 mm 205.5 W/m2 OVC
10:47 44.4 °F /  6.9 °C 36.3 °F /  2.4 °C 29.99 in /  1015.5 hPa WNW 1.2 mph /  1.9 km/h 1.2 mph /  1.9 km/h 73 % 0.00 in /  0 mm 0.0 W/m2 OVC
10:52 44.4 °F /  6.9 °C 37.7 °F /  3.2 °C 29.99 in /  1015.5 hPa WNW 1.2 mph /  1.9 km/h 1.2 mph /  1.9 km/h 77 % 0.00 in /  0 mm 0.0 W/m2 OVC
10:57 44.1 °F /  6.7 °C 36.0 °F /  2.2 °C 29.99 in /  1015.5 hPa WNW 2.3 mph /  3.7 km/h   73 % 0.00 in /  0 mm 127.5 W/m2 OVC
11:02 44.1 °F /  6.7 °C 37.0 °F /  2.8 °C 29.98 in /  1015.1 hPa WNW 1.5 mph /  2.4 km/h 1.5 mph /  2.4 km/h 76 % 0.00 in /  0 mm 0.0 W/m2 OVC
11:07 45.1 °F /  7.3 °C 36.6 °F /  2.6 °C 29.98 in /  1015.1 hPa WNW 1.9 mph /  3.1 km/h 1.9 mph /  3.1 km/h 72 % 0.00 in /  0 mm 0.0 W/m2 OVC
11:12 45.3 °F /  7.4 °C 35.7 °F /  2.1 °C 29.98 in /  1015.1 hPa WNW 5.7 mph /  9.2 km/h 5.7 mph /  9.2 km/h 69 % 0.00 in /  0 mm 352.5 W/m2 OVC
11:17 45.9 °F /  7.7 °C 35.1 °F /  1.7 °C 29.98 in /  1015.1 hPa WNW 8.1 mph /  13 km/h 8.1 mph /  13 km/h 66 % 0.00 in /  0 mm 0.0 W/m2 OVC
11:22 46.4 °F /  8 °C 36.4 °F /  2.4 °C 29.97 in /  1014.8 hPa WNW 1.5 mph /  2.4 km/h 1.5 mph /  2.4 km/h 68 % 0.00 in /  0 mm 0.0 W/m2 OVC
11:27 45.9 °F /  7.7 °C 35.9 °F /  2.2 °C 29.97 in /  1014.8 hPa WNW 8.1 mph /  13 km/h 8.1 mph /  13 km/h 68 % 0.00 in /  0 mm 174.0 W/m2 OVC
11:32 45.3 °F /  7.4 °C 34.6 °F /  1.4 °C 29.97 in /  1014.8 hPa WNW 3.5 mph /  5.6 km/h 3.5 mph /  5.6 km/h 66 % 0.00 in /  0 mm 0.0 W/m2 OVC
11:37 44.8 °F /  7.1 °C 34.9 °F /  1.6 °C 29.98 in /  1015.1 hPa Calm     68 % 0.00 in /  0 mm 0.0 W/m2 OVC
11:42 45.0 °F /  7.2 °C 34.7 °F /  1.5 °C 29.98 in /  1015.1 hPa WNW 3.9 mph /  6.3 km/h 3.9 mph /  6.3 km/h 67 % 0.00 in /  0 mm 250.5 W/m2 OVC
11:48 45.9 °F /  7.7 °C 32.3 °F /  0.2 °C 29.98 in /  1015.1 hPa WNW 1.2 mph /  1.9 km/h 1.2 mph /  1.9 km/h 59 % 0.00 in /  0 mm 0.0 W/m2 OVC
11:53 45.9 °F /  7.7 °C 34.8 °F /  1.6 °C 29.98 in /  1015.1 hPa Calm     65 % 0.00 in /  0 mm 0.0 W/m2 OVC
11:58 46.2 °F /  7.9 °C 35.5 °F /  1.9 °C 29.98 in /  1015.1 hPa WNW 3.5 mph /  5.6 km/h 3.5 mph /  5.6 km/h 66 % 0.00 in /  0 mm 171.0 W/m2 OVC
12:03 45.7 °F /  7.6 °C 34.6 °F /  1.4 °C 29.98 in /  1015.1 hPa Calm     65 % 0.00 in /  0 mm 0.0 W/m2 OVC
12:08 45.3 °F /  7.4 °C 34.6 °F /  1.4 °C 29.98 in /  1015.1 hPa WNW 3.5 mph /  5.6 km/h 3.5 mph /  5.6 km/h 66 % 0.00 in /  0 mm 0.0 W/m2 OVC
12:13 45.1 °F /  7.3 °C 35.2 °F /  1.8 °C 29.98 in /  1015.1 hPa WNW 1.2 mph /  1.9 km/h 1.2 mph /  1.9 km/h 68 % 0.00 in /  0 mm 219.0 W/m2 OVC
12:18 47.1 °F /  8.4 °C 35.6 °F /  2 °C 29.97 in /  1014.8 hPa WNW 1.7 mph /  2.7 km/h 1.7 mph /  2.7 km/h 64 % 0.00 in /  0 mm 0.0 W/m2 OVC
12:23 47.7 °F /  8.7 °C 35.7 °F /  2.1 °C 29.97 in /  1014.8 hPa WNW 2.5 mph /  4 km/h 2.5 mph /  4 km/h 63 % 0.00 in /  0 mm 0.0 W/m2 OVC
12:28 46.2 °F /  7.9 °C 35.5 °F /  1.9 °C 29.98 in /  1015.1 hPa WNW 5.8 mph /  9.3 km/h 5.8 mph /  9.3 km/h 66 % 0.00 in /  0 mm 130.5 W/m2 OVC
12:33 45.3 °F /  7.4 °C 35.7 °F /  2.1 °C 29.98 in /  1015.1 hPa WNW 9.2 mph /  14.8 km/h 9.2 mph /  14.8 km/h 69 % 0.00 in /  0 mm 0.0 W/m2 OVC
12:38 45.7 °F /  7.6 °C 36.1 °F /  2.3 °C 29.98 in /  1015.1 hPa WNW 4.6 mph /  7.4 km/h 4.6 mph /  7.4 km/h 69 % 0.00 in /  0 mm 0.0 W/m2 OVC
12:43 47.5 °F /  8.6 °C 37.1 °F /  2.8 °C 29.98 in /  1015.1 hPa WNW 1.0 mph /  1.6 km/h 1.0 mph /  1.6 km/h 67 % 0.00 in /  0 mm 384.0 W/m2 OVC
12:48 48.0 °F /  8.9 °C 36.4 °F /  2.4 °C 29.97 in /  1014.8 hPa WNW 1.9 mph /  3.1 km/h 1.9 mph /  3.1 km/h 64 % 0.00 in /  0 mm 360.0 W/m2 OVC
12:53 47.3 °F /  8.5 °C 34.9 °F /  1.6 °C 29.98 in /  1015.1 hPa WNW 0.1 mph /  0.2 km/h   62 % 0.00 in /  0 mm 0.0 W/m2 OVC
12:58 45.3 °F /  7.4 °C 35.7 °F /  2.1 °C 29.98 in /  1015.1 hPa WNW 3.5 mph /  5.6 km/h 3.5 mph /  5.6 km/h 69 % 0.00 in /  0 mm 0.0 W/m2 OVC
13:03 44.1 °F /  6.7 °C 36.0 °F /  2.2 °C 29.99 in /  1015.5 hPa WNW 9.2 mph /  14.8 km/h 9.2 mph /  14.8 km/h 73 % 0.00 in /  0 mm 0.0 W/m2 OVC
13:08 41.7 °F /  5.4 °C 37.8 °F /  3.2 °C 30.00 in /  1015.8 hPa WNW 2.8 mph /  4.5 km/h 2.8 mph /  4.5 km/h 86 % 0.00 in /  0 mm 0.0 W/m2 OVC
13:13 40.3 °F /  4.6 °C 39.0 °F /  3.9 °C 29.99 in /  1015.5 hPa WNW 4.0 mph /  6.4 km/h 4.0 mph /  6.4 km/h 95 % 0.01 in /  0.25 mm 376.5 W/m2 RA
13:18 41.4 °F /  5.2 °C 40.8 °F /  4.9 °C 29.99 in /  1015.5 hPa Calm     98 % 0.01 in /  0.25 mm 0.0 W/m2 RA
13:23 41.7 °F /  5.4 °C 39.8 °F /  4.3 °C 29.99 in /  1015.5 hPa WNW 1.2 mph /  1.9 km/h 1.2 mph /  1.9 km/h 93 % 0.01 in /  0.25 mm 0.0 W/m2 OVC
13:28 43.2 °F /  6.2 °C 41.8 °F /  5.4 °C 29.99 in /  1015.5 hPa WNW 2.3 mph /  3.7 km/h 2.3 mph /  3.7 km/h 95 % 0.01 in /  0.25 mm 0.0 W/m2 OVC
13:34 44.4 °F /  6.9 °C 41.7 °F /  5.4 °C 29.98 in /  1015.1 hPa WNW 1.2 mph /  1.9 km/h 1.2 mph /  1.9 km/h 90 % 0.01 in /  0.25 mm 426.0 W/m2 OVC
13:39 44.6 °F /  7 °C 38.2 °F /  3.4 °C 29.98 in /  1015.1 hPa WNW 2.5 mph /  4 km/h 2.5 mph /  4 km/h 78 % 0.01 in /  0.25 mm 0.0 W/m2 OVC
13:44 45.9 °F /  7.7 °C 39.7 °F /  4.3 °C 29.97 in /  1014.8 hPa WNW 3.5 mph /  5.6 km/h 3.5 mph /  5.6 km/h 79 % 0.01 in /  0.25 mm 0.0 W/m2 OVC
13:49 48.2 °F /  9 °C 40.3 °F /  4.6 °C 29.98 in /  1015.1 hPa WNW 4.6 mph /  7.4 km/h 4.6 mph /  7.4 km/h 74 % 0.01 in /  0.25 mm 246.0 W/m2 OVC
13:54 47.7 °F /  8.7 °C 38.7 °F /  3.7 °C 29.97 in /  1014.8 hPa WNW 3.5 mph /  5.6 km/h 3.5 mph /  5.6 km/h 71 % 0.01 in /  0.25 mm 0.0 W/m2 OVC
13:59 47.3 °F /  8.5 °C 36.9 °F /  2.7 °C 29.98 in /  1015.1 hPa WNW 4.6 mph /  7.4 km/h 4.6 mph /  7.4 km/h 67 % 0.01 in /  0.25 mm 0.0 W/m2 OVC
14:04 48.2 °F /  9 °C 37.4 °F /  3 °C 29.98 in /  1015.1 hPa Calm     66 % 0.01 in /  0.25 mm 291.0 W/m2 OVC
14:09 47.5 °F /  8.6 °C 37.4 °F /  3 °C 29.98 in /  1015.1 hPa Calm     68 % 0.00 in /  0 mm 0.0 W/m2 OVC
14:14 47.5 °F /  8.6 °C 39.3 °F /  4.1 °C 29.98 in /  1015.1 hPa WNW 1.2 mph /  1.9 km/h   73 % 0.00 in /  0 mm 0.0 W/m2 OVC
14:19 47.7 °F /  8.7 °C 37.2 °F /  2.9 °C 29.97 in /  1014.8 hPa WNW 1.8 mph /  2.9 km/h 1.8 mph /  2.9 km/h 67 % 0.00 in /  0 mm 228.0 W/m2 OVC
14:24 47.8 °F /  8.8 °C 37.8 °F /  3.2 °C 29.97 in /  1014.8 hPa WNW 3.5 mph /  5.6 km/h 3.5 mph /  5.6 km/h 68 % 0.00 in /  0 mm 0.0 W/m2 OVC
14:29 47.7 °F /  8.7 °C 36.9 °F /  2.7 °C 29.97 in /  1014.8 hPa WNW 8.1 mph /  13 km/h 8.1 mph /  13 km/h 66 % 0.00 in /  0 mm 0.0 W/m2 OVC
14:34 48.2 °F /  9 °C 37.0 °F /  2.8 °C 29.97 in /  1014.8 hPa WNW 5.8 mph /  9.3 km/h 5.8 mph /  9.3 km/h 65 % 0.00 in /  0 mm 315.0 W/m2 OVC
14:39 48.9 °F /  9.4 °C 36.9 °F /  2.7 °C 29.97 in /  1014.8 hPa WNW 2.3 mph /  3.7 km/h 2.3 mph /  3.7 km/h 63 % 0.00 in /  0 mm 0.0 W/m2 OVC
14:44 49.5 °F /  9.7 °C 37.0 °F /  2.8 °C 29.97 in /  1014.8 hPa WNW 2.3 mph /  3.7 km/h 2.3 mph /  3.7 km/h 62 % 0.00 in /  0 mm 0.0 W/m2 OVC
14:49 48.7 °F /  9.3 °C 37.1 °F /  2.8 °C 29.97 in /  1014.8 hPa WNW 5.2 mph /  8.4 km/h 5.2 mph /  8.4 km/h 64 % 0.00 in /  0 mm 330.0 W/m2 OVC
14:54 48.6 °F /  9.2 °C 36.1 °F /  2.3 °C 29.96 in /  1014.4 hPa WNW 1.2 mph /  1.9 km/h 1.2 mph /  1.9 km/h 62 % 0.00 in /  0 mm 0.0 W/m2 OVC
14:59 49.1 °F /  9.5 °C 34.9 °F /  1.6 °C 29.96 in /  1014.4 hPa WNW 3.5 mph /  5.6 km/h 3.5 mph /  5.6 km/h 58 % 0.00 in /  0 mm 0.0 W/m2 OVC
15:05 48.4 °F /  9.1 °C 33.4 °F /  0.8 °C 29.96 in /  1014.4 hPa WNW 2.3 mph /  3.7 km/h 2.3 mph /  3.7 km/h 56 % 0.00 in /  0 mm 249.0 W/m2 OVC
15:10 48.6 °F /  9.2 °C 35.7 °F /  2.1 °C 29.96 in /  1014.4 hPa WNW 0.4 mph /  0.6 km/h   61 % 0.00 in /  0 mm 0.0 W/m2 OVC
15:15 48.0 °F /  8.9 °C 35.2 °F /  1.8 °C 29.96 in /  1014.4 hPa WNW 1.5 mph /  2.4 km/h 1.5 mph /  2.4 km/h 61 % 0.00 in /  0 mm 0.0 W/m2 OVC
15:20 48.4 °F /  9.1 °C 36.4 °F /  2.4 °C 29.96 in /  1014.4 hPa WNW 2.3 mph /  3.7 km/h 2.3 mph /  3.7 km/h 63 % 0.00 in /  0 mm 184.5 W/m2 OVC
15:25 48.6 °F /  9.2 °C 36.9 °F /  2.7 °C 29.96 in /  1014.4 hPa WNW 4.6 mph /  7.4 km/h 4.6 mph /  7.4 km/h 64 % 0.00 in /  0 mm 0.0 W/m2 OVC
15:30 48.6 °F /  9.2 °C 35.3 °F /  1.8 °C 29.96 in /  1014.4 hPa WNW 0.3 mph /  0.5 km/h   60 % 0.00 in /  0 mm 0.0 W/m2 OVC
15:35 49.5 °F /  9.7 °C 36.1 °F /  2.3 °C 29.96 in /  1014.4 hPa WNW 5.0 mph /  8 km/h 5.0 mph /  8 km/h 60 % 0.00 in /  0 mm 93.0 W/m2 OVC
15:41 48.6 °F /  9.2 °C 34.0 °F /  1.1 °C 29.96 in /  1014.4 hPa Calm     57 % 0.00 in /  0 mm 0.0 W/m2 OVC
15:46 49.3 °F /  9.6 °C 34.2 °F /  1.2 °C 29.96 in /  1014.4 hPa WNW 6.1 mph /  9.8 km/h 6.1 mph /  9.8 km/h 56 % 0.00 in /  0 mm 225.0 W/m2 OVC
15:51 49.3 °F /  9.6 °C 34.7 °F /  1.5 °C 29.96 in /  1014.4 hPa WNW 3.0 mph /  4.8 km/h 3.0 mph /  4.8 km/h 57 % 0.00 in /  0 mm 148.5 W/m2 OVC
15:56 48.7 °F /  9.3 °C 35.0 °F /  1.7 °C 29.96 in /  1014.4 hPa WNW 7.5 mph /  12.1 km/h 7.5 mph /  12.1 km/h 59 % 0.00 in /  0 mm 0.0 W/m2 OVC
16:01 48.4 °F /  9.1 °C 35.1 °F /  1.7 °C 29.96 in /  1014.4 hPa WNW 2.3 mph /  3.7 km/h 2.3 mph /  3.7 km/h 60 % 0.00 in /  0 mm 261.0 W/m2 OVC
16:06 47.7 °F /  8.7 °C 35.7 °F /  2.1 °C 29.96 in /  1014.4 hPa WNW 2.3 mph /  3.7 km/h 2.3 mph /  3.7 km/h 63 % 0.00 in /  0 mm 37.5 W/m2 OVC
16:11 46.8 °F /  8.2 °C 34.4 °F /  1.3 °C 29.97 in /  1014.8 hPa WNW 4.0 mph /  6.4 km/h 4.0 mph /  6.4 km/h 62 % 0.00 in /  0 mm 0.0 W/m2 OVC
16:16 46.8 °F /  8.2 °C 35.6 °F /  2 °C 29.97 in /  1014.8 hPa WNW 3.5 mph /  5.6 km/h 3.5 mph /  5.6 km/h 65 % 0.00 in /  0 mm 112.5 W/m2 OVC
16:21 46.8 °F /  8.2 °C 36.0 °F /  2.2 °C 29.97 in /  1014.8 hPa WNW 1.7 mph /  2.7 km/h 1.7 mph /  2.7 km/h 66 % 0.00 in /  0 mm 156.0 W/m2 OVC
16:26 47.1 °F /  8.4 °C 35.6 °F /  2 °C 29.97 in /  1014.8 hPa WNW 2.3 mph /  3.7 km/h 2.3 mph /  3.7 km/h 64 % 0.00 in /  0 mm 132.0 W/m2 OVC
16:31 46.4 °F /  8 °C 35.3 °F /  1.8 °C 29.98 in /  1015.1 hPa WNW 11.2 mph /  18 km/h 11.2 mph /  18 km/h 65 % 0.00 in /  0 mm 0.0 W/m2 OVC
16:36 44.6 °F /  7 °C 37.2 °F /  2.9 °C 29.99 in /  1015.5 hPa WNW 13.5 mph /  21.7 km/h 13.5 mph /  21.7 km/h 75 % 0.00 in /  0 mm 39.0 W/m2 OVC
16:41 41.7 °F /  5.4 °C 38.1 °F /  3.4 °C 29.99 in /  1015.5 hPa WNW 8.1 mph /  13 km/h 8.1 mph /  13 km/h 87 % 0.00 in /  0 mm 174.0 W/m2 OVC
16:47 40.3 °F /  4.6 °C 38.1 °F /  3.4 °C 29.99 in /  1015.5 hPa WNW 3.6 mph /  5.8 km/h 3.6 mph /  5.8 km/h 92 % 0.01 in /  0.25 mm 0.0 W/m2 RA
16:52 39.2 °F /  4 °C 38.2 °F /  3.4 °C 29.99 in /  1015.5 hPa Calm     96 % 0.02 in /  0.51 mm 22.5 W/m2 RA
16:57 39.2 °F /  4 °C 38.9 °F /  3.8 °C 29.99 in /  1015.5 hPa Calm     99 % 0.02 in /  0.51 mm 70.5 W/m2 RA
17:02 39.6 °F /  4.2 °C 39.3 °F /  4.1 °C 29.99 in /  1015.5 hPa Calm     99 % 0.02 in /  0.51 mm 0.0 W/m2 OVC
17:07 40.3 °F /  4.6 °C 40.0 °F /  4.4 °C 29.99 in /  1015.5 hPa Calm     99 % 0.02 in /  0.51 mm 136.5 W/m2 OVC
17:12 41.0 °F /  5 °C 40.5 °F /  4.7 °C 29.99 in /  1015.5 hPa Calm     98 % 0.02 in /  0.51 mm 144.0 W/m2 OVC
17:17 41.0 °F /  5 °C 39.9 °F /  4.4 °C 29.99 in /  1015.5 hPa Calm     96 % 0.02 in /  0.51 mm 0.0 W/m2 OVC
17:22 41.4 °F /  5.2 °C 40.6 °F /  4.8 °C 29.99 in /  1015.5 hPa Calm     97 % 0.02 in /  0.51 mm 126.0 W/m2 OVC
17:27 41.5 °F /  5.3 °C 40.5 °F /  4.7 °C 29.99 in /  1015.5 hPa Calm     96 % 0.02 in /  0.51 mm 97.5 W/m2 OVC
17:32 41.2 °F /  5.1 °C 40.1 °F /  4.5 °C 29.99 in /  1015.5 hPa WNW 1.2 mph /  1.9 km/h   96 % 0.02 in /  0.51 mm 0.0 W/m2 OVC
17:37 40.8 °F /  4.9 °C 39.2 °F /  4 °C 29.99 in /  1015.5 hPa WNW 2.9 mph /  4.7 km/h 2.9 mph /  4.7 km/h 94 % 0.02 in /  0.51 mm 79.5 W/m2 OVC
17:42 40.1 °F /  4.5 °C 39.1 °F /  3.9 °C 29.99 in /  1015.5 hPa Calm     96 % 0.02 in /  0.51 mm 36.0 W/m2 OVC
17:47 39.7 °F /  4.3 °C 38.7 °F /  3.7 °C 29.99 in /  1015.5 hPa WNW 3.5 mph /  5.6 km/h 3.5 mph /  5.6 km/h 96 % 0.01 in /  0.25 mm 0.0 W/m2 OVC
17:52 39.7 °F /  4.3 °C 39.2 °F /  4 °C 29.99 in /  1015.5 hPa Calm     98 % 0.00 in /  0 mm 111.0 W/m2 OVC
17:57 39.9 °F /  4.4 °C 39.4 °F /  4.1 °C 29.99 in /  1015.5 hPa Calm     98 % 0.00 in /  0 mm 307.5 W/m2 OVC
18:02 40.1 °F /  4.5 °C 39.8 °F /  4.3 °C 29.99 in /  1015.5 hPa Calm     99 % 0.00 in /  0 mm 0.0 W/m2 OVC
18:07 40.1 °F /  4.5 °C 39.6 °F /  4.2 °C 30.00 in /  1015.8 hPa WNW 1.2 mph /  1.9 km/h 1.2 mph /  1.9 km/h 98 % 0.00 in /  0 mm 238.5 W/m2 OVC
18:12 40.1 °F /  4.5 °C 39.6 °F /  4.2 °C 30.00 in /  1015.8 hPa Calm     98 % 0.00 in /  0 mm 223.5 W/m2 OVC
18:17 39.6 °F /  4.2 °C 39.6 °F /  4.2 °C 30.00 in /  1015.8 hPa WNW 2.3 mph /  3.7 km/h 2.3 mph /  3.7 km/h 100 % 0.02 in /  0.51 mm 0.0 W/m2 RA
18:22 39.6 °F /  4.2 °C 39.6 °F /  4.2 °C 30.00 in /  1015.8 hPa Calm     100 % 0.02 in /  0.51 mm 261.0 W/m2 RA
18:27 39.9 °F /  4.4 °C 39.9 °F /  4.4 °C 30.00 in /  1015.8 hPa Calm     100 % 0.02 in /  0.51 mm 282.0 W/m2 RA
18:33 40.1 °F /  4.5 °C 40.1 °F /  4.5 °C 30.00 in /  1015.8 hPa Calm     100 % 0.02 in /  0.51 mm 0.0 W/m2 RA
18:38 40.5 °F /  4.7 °C 40.5 °F /  4.7 °C 30.00 in /  1015.8 hPa Calm     100 % 0.02 in /  0.51 mm 70.5 W/m2 OVC
18:43 40.1 °F /  4.5 °C 39.8 °F /  4.3 °C 30.00 in /  1015.8 hPa Calm     99 % 0.02 in /  0.51 mm 279.0 W/m2 OVC
18:48 39.9 °F /  4.4 °C 39.9 °F /  4.4 °C 30.00 in /  1015.8 hPa Calm     100 % 0.02 in /  0.51 mm 0.0 W/m2 OVC
18:53 39.6 °F /  4.2 °C 39.0 °F /  3.9 °C 30.00 in /  1015.8 hPa Calm     98 % 0.02 in /  0.51 mm 0.0 W/m2 OVC
18:58 39.0 °F /  3.9 °C 39.0 °F /  3.9 °C 30.00 in /  1015.8 hPa Calm     100 % 0.02 in /  0.51 mm 252.0 W/m2 OVC
19:03 38.8 °F /  3.8 °C 38.8 °F /  3.8 °C 29.99 in /  1015.5 hPa Calm     100 % 0.02 in /  0.51 mm 0.0 W/m2
19:08 38.7 °F /  3.7 °C 38.7 °F /  3.7 °C 30.00 in /  1015.8 hPa Calm     100 % 0.02 in /  0.51 mm 55.5 W/m2
19:13 38.7 °F /  3.7 °C 38.7 °F /  3.7 °C 30.00 in /  1015.8 hPa Calm     100 % 0.02 in /  0.51 mm 48.0 W/m2
19:18 38.3 °F /  3.5 °C 38.3 °F /  3.5 °C 30.00 in /  1015.8 hPa Calm     100 % 0.01 in /  0.25 mm 0.0 W/m2
19:23 38.3 °F /  3.5 °C 38.3 °F /  3.5 °C 30.00 in /  1015.8 hPa Calm     100 % 0.01 in /  0.25 mm 0.0 W/m2
19:28 38.3 °F /  3.5 °C 38.3 °F /  3.5 °C 30.00 in /  1015.8 hPa Calm     100 % 0.00 in /  0 mm 28.5 W/m2
19:33 38.1 °F /  3.4 °C 38.1 °F /  3.4 °C 30.01 in /  1016.1 hPa Calm     100 % 0.00 in /  0 mm 0.0 W/m2
19:38 38.3 °F /  3.5 °C 38.3 °F /  3.5 °C 30.01 in /  1016.1 hPa Calm     100 % 0.00 in /  0 mm 0.0 W/m2
19:43 38.7 °F /  3.7 °C 38.7 °F /  3.7 °C 30.01 in /  1016.1 hPa Calm     100 % 0.00 in /  0 mm 27.0 W/m2
19:48 38.5 °F /  3.6 °C 38.5 °F /  3.6 °C 30.00 in /  1015.8 hPa Calm     100 % 0.00 in /  0 mm 0.0 W/m2
19:53 38.1 °F /  3.4 °C 38.1 °F /  3.4 °C 30.00 in /  1015.8 hPa Calm     100 % 0.00 in /  0 mm 0.0 W/m2
19:58 37.9 °F /  3.3 °C 37.9 °F /  3.3 °C 30.00 in /  1015.8 hPa Calm     100 % 0.00 in /  0 mm 33.0 W/m2
20:03 37.8 °F /  3.2 °C 37.8 °F /  3.2 °C 30.00 in /  1015.8 hPa Calm     100 % 0.00 in /  0 mm 0.0 W/m2
20:08 37.4 °F /  3 °C 37.4 °F /  3 °C 30.00 in /  1015.8 hPa Calm     100 % 0.00 in /  0 mm 0.0 W/m2
20:13 37.2 °F /  2.9 °C 37.2 °F /  2.9 °C 30.01 in /  1016.1 hPa Calm     100 % 0.00 in /  0 mm 12.0 W/m2
20:18 37.6 °F /  3.1 °C 37.6 °F /  3.1 °C 30.01 in /  1016.1 hPa Calm     100 % 0.00 in /  0 mm 12.0 W/m2
20:23 37.8 °F /  3.2 °C 37.8 °F /  3.2 °C 30.02 in /  1016.5 hPa Calm     100 % 0.00 in /  0 mm 10.5 W/m2
20:29 37.9 °F /  3.3 °C 37.9 °F /  3.3 °C 30.02 in /  1016.5 hPa Calm     100 % 0.00 in /  0 mm 13.5 W/m2
20:34 38.1 °F /  3.4 °C 38.1 °F /  3.4 °C 30.02 in /  1016.5 hPa Calm     100 % 0.00 in /  0 mm 0.0 W/m2
20:39 38.3 °F /  3.5 °C 38.3 °F /  3.5 °C 30.02 in /  1016.5 hPa Calm     100 % 0.00 in /  0 mm 0.0 W/m2
20:44 37.8 °F /  3.2 °C 37.8 °F /  3.2 °C 30.02 in /  1016.5 hPa Calm     100 % 0.00 in /  0 mm 0.0 W/m2
20:49 37.2 °F /  2.9 °C 37.2 °F /  2.9 °C 30.02 in /  1016.5 hPa Calm     100 % 0.00 in /  0 mm 12.0 W/m2
20:54 36.9 °F /  2.7 °C 36.9 °F /  2.7 °C 30.03 in /  1016.8 hPa Calm     100 % 0.00 in /  0 mm 0.0 W/m2
20:59 36.5 °F /  2.5 °C 36.5 °F /  2.5 °C 30.03 in /  1016.8 hPa Calm     100 % 0.00 in /  0 mm 0.0 W/m2
21:04 36.3 °F /  2.4 °C 36.3 °F /  2.4 °C 30.03 in /  1016.8 hPa Calm     100 % 0.00 in /  0 mm 10.5 W/m2
21:09 36.1 °F /  2.3 °C 36.1 °F /  2.3 °C 30.03 in /  1016.8 hPa Calm     100 % 0.00 in /  0 mm 0.0 W/m2
21:14 36.0 °F /  2.2 °C 36.0 °F /  2.2 °C 30.03 in /  1016.8 hPa Calm     100 % 0.00 in /  0 mm 0.0 W/m2
21:19 35.6 °F /  2 °C 35.6 °F /  2 °C 30.03 in /  1016.8 hPa Calm     100 % 0.00 in /  0 mm 18.0 W/m2
21:24 35.6 °F /  2 °C 35.6 °F /  2 °C 30.03 in /  1016.8 hPa Calm     100 % 0.00 in /  0 mm 0.0 W/m2
21:29 35.4 °F /  1.9 °C 35.4 °F /  1.9 °C 30.04 in /  1017.2 hPa Calm     100 % 0.00 in /  0 mm 0.0 W/m2
21:34 35.4 °F /  1.9 °C 35.4 °F /  1.9 °C 30.03 in /  1016.8 hPa Calm     100 % 0.00 in /  0 mm 10.5 W/m2
21:39 35.4 °F /  1.9 °C 35.4 °F /  1.9 °C 30.04 in /  1017.2 hPa Calm     100 % 0.00 in /  0 mm 12.0 W/m2
21:44 35.4 °F /  1.9 °C 35.4 °F /  1.9 °C 30.04 in /  1017.2 hPa Calm     100 % 0.00 in /  0 mm 0.0 W/m2
21:49 35.1 °F /  1.7 °C 35.1 °F /  1.7 °C 30.05 in /  1017.5 hPa Calm     100 % 0.00 in /  0 mm 21.0 W/m2
21:54 35.1 °F /  1.7 °C 35.1 °F /  1.7 °C 30.04 in /  1017.2 hPa Calm     100 % 0.00 in /  0 mm 10.5 W/m2
21:59 34.9 °F /  1.6 °C 34.9 °F /  1.6 °C 30.05 in /  1017.5 hPa Calm     100 % 0.00 in /  0 mm 0.0 W/m2
22:04 34.9 °F /  1.6 °C 34.9 °F /  1.6 °C 30.04 in /  1017.2 hPa Calm     100 % 0.00 in /  0 mm 10.5 W/m2 CLR
22:09 35.1 °F /  1.7 °C 35.1 °F /  1.7 °C 30.05 in /  1017.5 hPa Calm     100 % 0.00 in /  0 mm 9.0 W/m2
22:14 35.2 °F /  1.8 °C 35.2 °F /  1.8 °C 30.05 in /  1017.5 hPa Calm     100 % 0.00 in /  0 mm 0.0 W/m2
22:19 35.1 °F /  1.7 °C 35.1 °F /  1.7 °C 30.05 in /  1017.5 hPa Calm     100 % 0.00 in /  0 mm 10.5 W/m2
22:24 34.7 °F /  1.5 °C 34.7 °F /  1.5 °C 30.05 in /  1017.5 hPa Calm     100 % 0.00 in /  0 mm 24.0 W/m2
22:29 34.7 °F /  1.5 °C 34.7 °F /  1.5 °C 30.05 in /  1017.5 hPa Calm     100 % 0.00 in /  0 mm 0.0 W/m2
22:35 34.7 °F /  1.5 °C 34.7 °F /  1.5 °C 30.05 in /  1017.5 hPa WNW 1.2 mph /  1.9 km/h   100 % 0.00 in /  0 mm 10.5 W/m2
22:40 34.7 °F /  1.5 °C 34.7 °F /  1.5 °C 30.05 in /  1017.5 hPa Calm     100 % 0.00 in /  0 mm 9.0 W/m2
22:45 35.4 °F /  1.9 °C 35.4 °F /  1.9 °C 30.06 in /  1017.8 hPa Calm     100 % 0.00 in /  0 mm 10.5 W/m2
22:50 35.6 °F /  2 °C 35.6 °F /  2 °C 30.05 in /  1017.5 hPa Calm     100 % 0.00 in /  0 mm 0.0 W/m2
22:55 35.8 °F /  2.1 °C 35.8 °F /  2.1 °C 30.06 in /  1017.8 hPa Calm     100 % 0.00 in /  0 mm 10.5 W/m2
23:00 35.8 °F /  2.1 °C 35.8 °F /  2.1 °C 30.06 in /  1017.8 hPa Calm     100 % 0.00 in /  0 mm 21.0 W/m2
23:05 36.0 °F /  2.2 °C 36.0 °F /  2.2 °C 30.06 in /  1017.8 hPa Calm     100 % 0.00 in /  0 mm 0.0 W/m2
Wether-Above
Compliments of Weather Underground - 2.25 mb
Welcome to Weather-Above
Cheddleton weather station supplies various organisations with data from our weather station one of them is the weather Underground this information displayed here is coming from the weather Underground server 

If any information is used please acknowledge the source to www weather-above.com or weather Underground